Time;durP1;ratioP1;P1;durP2;ratioP2;P2;SDS_P1;SDS_P2;PMS_P1;PMS_P2;Temp;Humidity;BMP_temperature;BMP_pressure;BME280_temperature;BME280_humidity;BME280_pressure;Samples;Min_cycle;Max_cycle;Signal;HPM_P1;HPM_P2
2021/12/03 00:01:19;;;;;;;7.35;3.25;;;-0.40;1.00;;;;;;5070666;28;20228;-86
2021/12/03 00:04:11;;;;;;;6.45;3.00;;;-0.40;1.00;;;;;;5102198;28;20267;-86
2021/12/03 00:06:43;;;;;;;6.45;3.40;;;-0.40;1.00;;;;;;5111642;27;20775;-86
2021/12/03 00:09:11;;;;;;;10.68;3.65;;;-0.50;1.00;;;;;;5101760;27;20228;-86
2021/12/03 00:11:39;;;;;;;8.88;5.45;;;-0.40;1.00;;;;;;5073832;28;20383;-87
2021/12/03 00:14:09;;;;;;;6.93;3.33;;;-0.40;1.00;;;;;;5067918;28;20259;-85
2021/12/03 00:16:36;;;;;;;7.95;4.30;;;-0.40;1.00;;;;;;5066055;28;20255;-86
2021/12/03 00:19:06;;;;;;;5.65;3.85;;;-0.40;1.00;;;;;;5087609;28;20216;-86
2021/12/03 00:21:37;;;;;;;9.10;3.42;;;-0.50;1.00;;;;;;5067234;28;20253;-86
2021/12/03 00:24:05;;;;;;;11.40;3.67;;;-0.50;1.00;;;;;;5083795;28;20861;-84
2021/12/03 00:26:33;;;;;;;5.97;3.38;;;-0.50;1.00;;;;;;5052356;28;20258;-86
2021/12/03 00:29:02;;;;;;;6.50;3.20;;;-0.50;1.00;;;;;;5086877;28;20275;-87
2021/12/03 00:31:29;;;;;;;6.80;3.15;;;-0.50;1.00;;;;;;5096567;28;20228;-86
2021/12/03 00:33:59;;;;;;;6.10;3.38;;;-0.50;1.00;;;;;;5068508;28;20228;-87
2021/12/03 00:36:33;;;;;;;5.00;3.67;;;-0.50;1.00;;;;;;5087121;28;20224;-87
2021/12/03 00:39:04;;;;;;;11.05;3.20;;;-0.50;1.00;;;;;;5070590;28;20221;-87
2021/12/03 00:41:35;;;;;;;9.25;3.13;;;-0.60;1.00;;;;;;5073636;28;20234;-85
2021/12/03 00:44:04;;;;;;;5.63;2.78;;;-0.50;1.00;;;;;;5086111;28;20338;-84
2021/12/03 00:46:32;;;;;;;6.35;2.80;;;-0.50;1.00;;;;;;5074201;28;20235;-86
2021/12/03 00:49:05;;;;;;;8.60;3.35;;;-0.50;1.00;;;;;;5077901;28;20219;-84
2021/12/03 00:51:32;;;;;;;6.50;2.70;;;-0.50;1.00;;;;;;5077391;28;20246;-85
2021/12/03 00:53:59;;;;;;;5.90;3.15;;;-0.50;1.00;;;;;;5080055;28;20248;-84
2021/12/03 00:56:32;;;;;;;6.97;3.20;;;-0.50;1.00;;;;;;5102121;28;20207;-87
2021/12/03 00:59:01;;;;;;;5.70;2.47;;;-0.50;1.00;;;;;;5197348;22;20220;-86
2021/12/03 01:01:35;;;;;;;6.95;3.10;;;-0.50;1.00;;;;;;5083206;28;20221;-86
2021/12/03 01:04:04;;;;;;;6.05;3.03;;;-0.50;1.00;;;;;;5081215;28;21212;-87
2021/12/03 01:06:35;;;;;;;5.45;3.22;;;-0.50;1.00;;;;;;5062053;28;20213;-85
2021/12/03 01:09:03;;;;;;;7.60;4.30;;;-0.50;1.00;;;;;;5069082;28;20213;-85
2021/12/03 01:11:31;;;;;;;5.40;3.05;;;-0.50;1.00;;;;;;5087685;28;20217;-84
2021/12/03 01:14:01;;;;;;;6.47;2.35;;;-0.50;1.00;;;;;;5077131;28;20293;-86
2021/12/03 01:16:29;;;;;;;5.53;2.50;;;-0.50;1.00;;;;;;5066899;28;20368;-87
2021/12/03 01:19:02;;;;;;;6.38;2.65;;;-0.50;1.00;;;;;;5062436;28;20225;-85
2021/12/03 01:21:34;;;;;;;6.35;2.55;;;-0.50;1.00;;;;;;5081419;28;20229;-86
2021/12/03 01:24:07;;;;;;;4.43;2.40;;;-0.50;1.00;;;;;;5079986;28;20235;-86
2021/12/03 01:26:39;;;;;;;11.55;3.67;;;-0.40;1.00;;;;;;5073277;28;20744;-84
2021/12/03 01:29:07;;;;;;;4.68;2.60;;;-0.40;1.00;;;;;;5073592;28;20221;-84
2021/12/03 01:31:34;;;;;;;4.57;2.95;;;-0.40;1.00;;;;;;5061536;28;20230;-85
2021/12/03 01:34:06;;;;;;;5.38;2.85;;;-0.40;1.00;;;;;;5070880;28;20224;-86
2021/12/03 01:36:35;;;;;;;3.70;2.20;;;-0.30;1.00;;;;;;5061707;28;20209;-86
2021/12/03 01:39:03;;;;;;;5.85;2.50;;;-0.40;1.00;;;;;;5061222;28;20219;-87
2021/12/03 01:41:32;;;;;;;5.43;2.60;;;-0.40;1.00;;;;;;5066538;28;20281;-86
2021/12/03 01:44:02;;;;;;;4.15;2.45;;;-0.40;1.00;;;;;;5066196;28;20233;-85
2021/12/03 01:46:29;;;;;;;2.92;2.17;;;-0.30;1.00;;;;;;5059579;28;20240;-84
2021/12/03 01:48:57;;;;;;;4.22;2.22;;;-0.40;1.00;;;;;;5056997;28;20227;-84
2021/12/03 01:51:26;;;;;;;4.13;2.58;;;-0.40;1.00;;;;;;5061573;28;20276;-83
2021/12/03 01:53:59;;;;;;;3.75;2.25;;;-0.30;1.00;;;;;;5078422;28;21584;-86
2021/12/03 01:56:26;;;;;;;5.53;2.58;;;-0.30;1.00;;;;;;5072388;28;20221;-85
2021/12/03 01:58:55;;;;;;;4.25;2.60;;;-0.30;1.00;;;;;;5074069;28;20232;-85
2021/12/03 02:01:26;;;;;;;5.63;3.47;;;-0.30;1.00;;;;;;5112410;27;20211;-86
2021/12/03 02:04:05;;;;;;;4.75;2.25;;;-0.30;1.00;;;;;;5303572;22;20249;-87
2021/12/03 02:06:36;;;;;;;8.07;3.25;;;-0.30;1.00;;;;;;5105915;27;20211;-86
2021/12/03 02:09:05;;;;;;;5.40;2.90;;;-0.30;1.00;;;;;;5123818;28;20219;-86
2021/12/03 02:11:35;;;;;;;6.35;2.85;;;-0.30;1.00;;;;;;5104002;28;20218;-86
2021/12/03 02:14:07;;;;;;;5.00;3.40;;;-0.30;1.00;;;;;;5107140;28;20216;-85
2021/12/03 02:16:38;;;;;;;5.82;3.33;;;-0.40;1.00;;;;;;5074415;28;20221;-87
2021/12/03 02:19:09;;;;;;;5.65;3.50;;;-0.40;1.00;;;;;;5096210;28;20242;-87
2021/12/03 02:21:40;;;;;;;4.63;3.00;;;-0.40;1.00;;;;;;5081494;28;20228;-85
2021/12/03 02:24:10;;;;;;;7.40;3.20;;;-0.40;1.00;;;;;;5087794;27;20232;-86
2021/12/03 02:26:43;;;;;;;7.65;3.47;;;-0.50;1.00;;;;;;5099173;28;20216;-86
2021/12/03 02:29:15;;;;;;;9.57;3.67;;;-0.50;1.00;;;;;;5090281;28;20228;-86
2021/12/03 02:31:43;;;;;;;6.45;3.47;;;-0.50;1.00;;;;;;5086488;28;20228;-86
2021/12/03 02:34:14;;;;;;;6.35;2.97;;;-0.40;1.00;;;;;;5085596;28;20234;-85
2021/12/03 02:36:48;;;;;;;6.10;3.88;;;-0.40;1.00;;;;;;5115795;27;20216;-87
2021/12/03 02:39:17;;;;;;;6.32;3.25;;;-0.40;1.00;;;;;;5095717;27;20224;-86
2021/12/03 02:41:45;;;;;;;5.00;3.40;;;-0.40;1.00;;;;;;5098168;27;20208;-86
2021/12/03 02:44:17;;;;;;;6.82;4.18;;;-0.30;1.00;;;;;;5097752;27;20243;-86
2021/12/03 02:46:50;;;;;;;4.95;3.40;;;-0.40;1.00;;;;;;5098237;27;20340;-86
2021/12/03 02:49:18;;;;;;;7.85;3.90;;;-0.40;1.00;;;;;;5103160;27;20225;-87
2021/12/03 02:54:39;;;;;;;7.00;3.53;;;-0.40;1.00;;;;;;5339355;22;20227;-85
2021/12/03 02:57:09;;;;;;;5.63;3.65;;;-0.50;1.00;;;;;;5130978;27;20246;-87
2021/12/03 02:59:36;;;;;;;9.20;3.80;;;-0.40;1.00;;;;;;5175256;22;20242;-86
2021/12/03 03:02:08;;;;;;;8.50;4.45;;;-0.40;1.00;;;;;;5152250;27;20207;-86
2021/12/03 03:04:36;;;;;;;7.05;3.90;;;-0.30;1.00;;;;;;5150168;27;20229;-85
2021/12/03 03:07:06;;;;;;;5.78;3.65;;;-0.30;1.00;;;;;;5130275;27;20211;-85
2021/12/03 03:09:34;;;;;;;6.18;3.60;;;-0.30;1.00;;;;;;5132189;27;20274;-86
2021/12/03 03:14:45;;;;;;;5.68;3.17;;;-0.30;1.00;;;;;;4228183;25;20224;-87
2021/12/03 03:17:16;;;;;;;5.90;3.60;;;-0.30;1.00;;;;;;5097133;27;20238;-86
2021/12/03 03:19:46;;;;;;;8.35;3.63;;;-0.40;1.00;;;;;;5114179;27;20224;-85
2021/12/03 03:22:22;;;;;;;5.95;3.45;;;-0.40;1.00;;;;;;5122345;22;20208;-87
2021/12/03 03:24:51;;;;;;;10.15;4.00;;;-0.40;1.00;;;;;;5092951;27;20218;-85
2021/12/03 03:27:30;;;;;;;6.63;3.30;;;-0.50;1.00;;;;;;5089364;27;20220;-88
2021/12/03 03:30:02;;;;;;;5.85;3.85;;;-0.50;1.00;;;;;;5087911;27;20206;-87
2021/12/03 03:32:29;;;;;;;5.05;2.72;;;-0.60;1.00;;;;;;5073837;27;20255;-85
2021/12/03 03:37:40;;;;;;;6.85;3.35;;;-0.60;1.00;;;;;;5087732;28;20229;-87
2021/12/03 03:42:50;;;;;;;9.02;3.30;;;-0.70;1.00;;;;;;5592479;22;20227;-86
2021/12/03 03:45:33;;;;;;;8.07;4.72;;;-0.70;1.00;;;;;;5115145;27;20282;-85
2021/12/03 03:48:05;;;;;;;6.70;3.88;;;-0.70;1.00;;;;;;5091157;28;20225;-83
2021/12/03 03:50:33;;;;;;;5.50;3.03;;;-0.70;1.00;;;;;;5106915;28;20201;-85
2021/12/03 03:53:23;;;;;;;3.75;3.40;;;-0.70;1.00;;;;;;5100375;28;20228;-85
2021/12/03 03:55:52;;;;;;;8.93;4.40;;;-0.70;1.00;;;;;;5100988;28;20236;-85
2021/12/03 03:58:26;;;;;;;6.60;3.65;;;-0.70;1.00;;;;;;5101697;28;20204;-85
2021/12/03 04:06:15;;;;;;;8.23;3.80;;;-0.70;1.00;;;;;;5216368;22;20224;-85
2021/12/03 04:08:52;;;;;;;6.18;3.10;;;-0.70;1.00;;;;;;5091548;28;20217;-86
2021/12/03 04:16:50;;;;;;;4.47;3.00;;;-0.70;1.00;;;;;;5064994;28;20256;-86
2021/12/03 04:19:24;;;;;;;5.80;3.50;;;-0.70;1.00;;;;;;5059622;28;20240;-84
2021/12/03 04:24:50;;;;;;;6.95;3.33;;;-0.70;1.00;;;;;;5058617;28;20230;-85
2021/12/03 04:27:18;;;;;;;6.43;3.28;;;-0.70;1.00;;;;;;5054443;28;20312;-85
2021/12/03 04:29:47;;;;;;;7.20;3.55;;;-0.70;1.00;;;;;;5053524;28;20292;-85
2021/12/03 04:32:22;;;;;;;4.65;2.88;;;-0.70;1.00;;;;;;5049898;28;20237;-84
2021/12/03 04:34:51;;;;;;;6.05;2.90;;;-0.60;1.00;;;;;;5057069;28;20308;-85
2021/12/03 04:40:18;;;;;;;4.97;2.78;;;-0.60;1.00;;;;;;5055141;28;20237;-85
2021/12/03 04:42:48;;;;;;;5.68;3.50;;;-0.50;1.00;;;;;;5048528;28;20238;-84
2021/12/03 04:45:19;;;;;;;4.57;2.70;;;-0.50;1.00;;;;;;5044262;28;20329;-86
2021/12/03 04:47:48;;;;;;;6.90;3.17;;;-0.50;1.00;;;;;;5021390;28;20317;-86
2021/12/03 04:50:16;;;;;;;6.05;3.80;;;-0.40;1.00;;;;;;5007020;28;20230;-85
2021/12/03 04:52:45;;;;;;;5.55;3.03;;;-0.40;1.00;;;;;;5020478;28;20218;-86
2021/12/03 04:55:13;;;;;;;4.47;3.33;;;-0.30;1.00;;;;;;5038405;28;20285;-84
2021/12/03 04:57:43;;;;;;;8.15;3.00;;;-0.30;1.00;;;;;;5048705;28;20240;-85
2021/12/03 05:00:18;;;;;;;7.85;3.85;;;-0.20;1.00;;;;;;5029849;28;20316;-85
2021/12/03 05:02:45;;;;;;;4.20;2.90;;;-0.20;1.00;;;;;;5049535;28;20201;-87
2021/12/03 05:05:12;;;;;;;5.72;3.03;;;-0.10;1.00;;;;;;5050187;28;20212;-87
2021/12/03 05:07:58;;;;;;;7.60;3.30;;;-0.10;1.00;;;;;;5062151;28;20217;-86
2021/12/03 05:10:27;;;;;;;5.70;3.20;;;-0.10;1.00;;;;;;5057955;28;20249;-86
2021/12/03 05:12:58;;;;;;;5.68;3.30;;;0.00;1.00;;;;;;5038427;28;20238;-83
2021/12/03 05:15:26;;;;;;;7.63;3.55;;;0.00;1.00;;;;;;5054455;28;20232;-83
2021/12/03 05:17:53;;;;;;;4.90;2.95;;;0.00;1.00;;;;;;5036666;28;20229;-83
2021/12/03 05:20:23;;;;;;;6.68;3.65;;;0.10;1.00;;;;;;5051386;28;20214;-82
2021/12/03 05:22:51;;;;;;;4.82;3.22;;;0.10;1.00;;;;;;5038669;28;20743;-82
2021/12/03 05:25:21;;;;;;;7.22;2.90;;;0.20;1.00;;;;;;5033235;28;20226;-82
2021/12/03 05:27:50;;;;;;;7.22;2.80;;;0.20;1.00;;;;;;5033521;28;20843;-82
2021/12/03 05:30:21;;;;;;;4.30;2.75;;;0.20;1.00;;;;;;5030581;28;20203;-83
2021/12/03 05:32:48;;;;;;;5.82;2.83;;;0.20;1.00;;;;;;5033830;28;20229;-83
2021/12/03 05:35:16;;;;;;;4.95;3.03;;;0.30;1.00;;;;;;5031039;28;20227;-84
2021/12/03 05:37:43;;;;;;;6.78;2.67;;;0.30;1.00;;;;;;5029653;28;20229;-83
2021/12/03 05:40:13;;;;;;;7.85;3.42;;;0.30;1.00;;;;;;5026459;28;20226;-82
2021/12/03 05:42:40;;;;;;;6.10;3.53;;;0.30;1.00;;;;;;5033400;28;20316;-82
2021/12/03 05:45:10;;;;;;;6.28;3.30;;;0.40;1.00;;;;;;5044595;28;20269;-82
2021/12/03 05:47:40;;;;;;;5.63;3.03;;;0.40;1.00;;;;;;5051268;28;20218;-83
2021/12/03 05:50:10;;;;;;;8.35;3.05;;;0.50;1.00;;;;;;5041878;28;20344;-84
2021/12/03 05:52:37;;;;;;;6.07;3.40;;;0.50;1.00;;;;;;5033628;28;20302;-83
2021/12/03 05:55:05;;;;;;;9.45;3.17;;;0.50;1.00;;;;;;5012670;28;20230;-80
2021/12/03 05:57:32;;;;;;;8.40;2.80;;;0.50;1.00;;;;;;5012007;28;20290;-81
2021/12/03 06:00:09;;;;;;;7.60;3.20;;;0.50;1.00;;;;;;5032709;28;20270;-82
2021/12/03 06:02:36;;;;;;;5.45;2.90;;;0.50;1.00;;;;;;5025641;28;20226;-81
2021/12/03 06:05:05;;;;;;;6.60;4.10;;;0.50;1.00;;;;;;5004577;28;20240;-83
2021/12/03 06:07:33;;;;;;;6.60;4.25;;;0.50;1.00;;;;;;5028278;28;20257;-82
2021/12/03 06:10:00;;;;;;;5.50;2.80;;;0.50;1.00;;;;;;5023285;28;20224;-79
2021/12/03 06:12:27;;;;;;;5.03;3.35;;;0.50;1.00;;;;;;5030181;28;20254;-79
2021/12/03 06:14:54;;;;;;;5.60;3.55;;;0.50;1.00;;;;;;5033624;28;20225;-77
2021/12/03 06:17:21;;;;;;;8.82;4.53;;;0.50;1.00;;;;;;5007934;28;20243;-77
2021/12/03 06:19:48;;;;;;;8.85;4.30;;;0.50;1.00;;;;;;5036038;28;20287;-76
2021/12/03 06:22:19;;;;;;;5.50;3.60;;;0.50;1.00;;;;;;5031331;28;20230;-76
2021/12/03 06:24:51;;;;;;;8.07;4.07;;;0.50;1.00;;;;;;5026793;28;20293;-77
2021/12/03 06:27:18;;;;;;;6.40;4.05;;;0.40;1.00;;;;;;5039499;28;20253;-77
2021/12/03 06:29:45;;;;;;;7.47;4.95;;;0.40;1.00;;;;;;5039319;28;20227;-77
2021/12/03 06:32:12;;;;;;;7.90;3.65;;;0.40;1.00;;;;;;5037999;28;20238;-77
2021/12/03 06:34:42;;;;;;;6.32;3.40;;;0.40;1.00;;;;;;5021220;28;20227;-77
2021/12/03 06:37:09;;;;;;;8.40;4.70;;;0.50;1.00;;;;;;5037721;28;20223;-77
2021/12/03 06:39:39;;;;;;;11.48;5.25;;;0.40;1.00;;;;;;5043573;28;20225;-78
2021/12/03 06:42:07;;;;;;;8.57;4.82;;;0.40;1.00;;;;;;5035495;28;20240;-78
2021/12/03 06:44:34;;;;;;;8.10;4.20;;;0.40;1.00;;;;;;5021671;28;20210;-77
2021/12/03 06:47:02;;;;;;;8.10;3.80;;;0.50;1.00;;;;;;5038947;28;20226;-77
2021/12/03 06:49:33;;;;;;;6.45;3.83;;;0.50;1.00;;;;;;5038841;28;20392;-80
2021/12/03 06:52:03;;;;;;;5.57;3.50;;;0.40;1.00;;;;;;5028966;28;20214;-80
2021/12/03 06:54:31;;;;;;;9.48;4.72;;;0.50;1.00;;;;;;5033117;28;20218;-79
2021/12/03 06:57:01;;;;;;;6.65;4.05;;;0.50;1.00;;;;;;5020755;28;20409;-78
2021/12/03 06:59:28;;;;;;;5.38;4.80;;;0.50;1.00;;;;;;5040547;28;20217;-78
2021/12/03 07:01:55;;;;;;;6.03;4.20;;;0.50;1.00;;;;;;5031294;28;20336;-77
2021/12/03 07:04:23;;;;;;;7.90;4.13;;;0.50;1.00;;;;;;5023419;28;20276;-76
2021/12/03 07:06:51;;;;;;;10.15;4.88;;;0.50;1.00;;;;;;5003814;28;20226;-77
2021/12/03 07:09:20;;;;;;;7.30;3.95;;;0.60;1.00;;;;;;5003266;28;20226;-78
2021/12/03 07:11:47;;;;;;;6.07;4.00;;;0.60;1.00;;;;;;5009704;28;20247;-77
2021/12/03 07:14:16;;;;;;;7.85;4.13;;;0.60;1.00;;;;;;5030335;28;20344;-78
2021/12/03 07:16:43;;;;;;;8.00;4.38;;;0.60;1.00;;;;;;5025584;28;20281;-78
2021/12/03 07:19:10;;;;;;;7.00;4.18;;;0.70;1.00;;;;;;5024040;28;20206;-79
2021/12/03 07:21:37;;;;;;;7.13;5.35;;;0.80;1.00;;;;;;5042329;28;20333;-76
2021/12/03 07:24:04;;;;;;;7.93;4.75;;;0.90;1.00;;;;;;5029854;28;20241;-77
2021/12/03 07:26:31;;;;;;;7.22;5.18;;;0.90;1.00;;;;;;5016196;28;20230;-77
2021/12/03 07:28:58;;;;;;;9.38;5.65;;;1.00;1.00;;;;;;4991323;28;20246;-79
2021/12/03 07:31:26;;;;;;;8.13;4.40;;;1.10;1.00;;;;;;4999840;28;20274;-77
2021/12/03 07:33:56;;;;;;;6.88;4.88;;;1.10;1.00;;;;;;5018526;28;20226;-82
2021/12/03 07:36:23;;;;;;;8.00;4.75;;;1.20;1.00;;;;;;5018801;28;20230;-83
2021/12/03 07:39:06;;;;;;;10.32;5.10;;;1.30;1.00;;;;;;5004679;28;20316;-81
2021/12/03 07:41:36;;;;;;;10.18;6.00;;;1.40;1.00;;;;;;5001413;28;20226;-83
2021/12/03 07:44:05;;;;;;;7.40;5.30;;;1.50;1.00;;;;;;5004972;28;20269;-84
2021/12/03 07:46:35;;;;;;;10.05;5.93;;;1.50;1.00;;;;;;5022226;28;20321;-82
2021/12/03 07:49:05;;;;;;;9.82;5.97;;;1.50;1.00;;;;;;5022778;28;20249;-80
2021/12/03 07:51:32;;;;;;;10.65;5.35;;;1.60;1.00;;;;;;5023902;28;20230;-79
2021/12/03 07:53:59;;;;;;;7.78;5.00;;;1.70;1.00;;;;;;5018750;28;20728;-81
2021/12/03 07:56:26;;;;;;;7.80;5.13;;;1.70;1.00;;;;;;4999780;28;20245;-80
2021/12/03 07:58:56;;;;;;;7.25;4.70;;;1.90;1.00;;;;;;5018322;28;20924;-79
2021/12/03 08:01:24;;;;;;;8.30;5.03;;;2.00;1.00;;;;;;5016178;28;20230;-80
2021/12/03 08:03:55;;;;;;;10.63;5.85;;;2.10;1.00;;;;;;4997110;28;20238;-80
2021/12/03 08:06:22;;;;;;;9.05;5.80;;;2.10;1.00;;;;;;5019771;28;20263;-78
2021/12/03 08:08:59;;;;;;;7.45;4.70;;;2.30;1.00;;;;;;5017172;28;20225;-81
2021/12/03 08:11:31;;;;;;;8.80;5.40;;;2.40;1.00;;;;;;5003698;28;20240;-83
2021/12/03 08:14:05;;;;;;;9.80;6.20;;;2.40;1.00;;;;;;5017604;28;20232;-80
2021/12/03 08:16:32;;;;;;;9.75;6.32;;;2.50;1.00;;;;;;5017342;28;20273;-80
2021/12/03 08:19:05;;;;;;;12.93;5.32;;;2.40;1.00;;;;;;5018943;28;20641;-81
2021/12/03 08:21:33;;;;;;;15.52;10.60;;;2.40;1.00;;;;;;5000134;28;20311;-82
2021/12/03 08:24:05;;;;;;;10.48;5.68;;;2.40;1.00;;;;;;5018532;28;20242;-80
2021/12/03 08:26:47;;;;;;;8.68;5.53;;;2.40;1.00;;;;;;5020907;28;20218;-81
2021/12/03 08:29:16;;;;;;;8.75;4.90;;;2.40;1.00;;;;;;5003222;28;20269;-80
2021/12/03 08:34:46;;;;;;;12.27;10.98;;;2.50;1.00;;;;;;5016781;28;20286;-81
2021/12/03 08:37:19;;;;;;;8.27;5.78;;;2.50;1.00;;;;;;5019659;28;20230;-81
2021/12/03 08:40:01;;;;;;;7.50;5.25;;;2.50;1.00;;;;;;5029558;28;20218;-80
2021/12/03 08:42:31;;;;;;;7.93;5.38;;;2.50;1.00;;;;;;5015052;28;20245;-79
2021/12/03 08:45:07;;;;;;;8.95;5.05;;;2.50;1.00;;;;;;5025754;28;20297;-83
2021/12/03 08:47:39;;;;;;;8.93;5.35;;;2.60;1.00;;;;;;5003181;28;20241;-82
2021/12/03 08:51:06;;;;;;;7.50;5.63;;;2.60;1.00;;;;;;5022508;28;20246;-79
2021/12/03 08:56:33;;;;;;;8.13;4.80;;;2.70;1.00;;;;;;5020607;28;20249;-80
2021/12/03 08:59:09;;;;;;;10.05;4.75;;;2.70;1.00;;;;;;5037222;28;20222;-80
2021/12/03 09:01:36;;;;;;;10.68;4.43;;;2.70;1.00;;;;;;5044559;28;20226;-79
2021/12/03 09:04:04;;;;;;;9.77;5.60;;;2.70;1.00;;;;;;5028518;28;20298;-81
2021/12/03 09:06:32;;;;;;;7.07;4.70;;;2.90;1.00;;;;;;5041470;28;20222;-79
2021/12/03 09:09:03;;;;;;;9.70;5.05;;;3.10;1.00;;;;;;5043919;28;20387;-79
2021/12/03 09:11:35;;;;;;;5.43;3.70;;;3.30;1.00;;;;;;5044209;28;20273;-78
2021/12/03 09:14:06;;;;;;;7.25;5.00;;;3.40;1.00;;;;;;5040180;28;20290;-78
2021/12/03 09:16:35;;;;;;;10.45;4.72;;;3.50;1.00;;;;;;5037833;28;20301;-78
2021/12/03 09:19:10;;;;;;;5.75;4.20;;;3.70;1.00;;;;;;5029210;28;20222;-77
2021/12/03 09:21:37;;;;;;;8.02;6.43;;;3.80;1.00;;;;;;5026104;28;20324;-79
2021/12/03 09:24:12;;;;;;;7.40;4.05;;;3.80;1.00;;;;;;5017487;28;20226;-78
2021/12/03 09:26:40;;;;;;;7.95;4.25;;;3.90;1.00;;;;;;5020689;28;20885;-77
2021/12/03 09:29:10;;;;;;;5.95;3.97;;;3.80;1.00;;;;;;5026184;28;20233;-78
2021/12/03 09:31:40;;;;;;;7.10;4.13;;;3.80;1.00;;;;;;5024705;28;20230;-78
2021/12/03 09:34:09;;;;;;;5.95;3.78;;;4.10;1.00;;;;;;5021972;28;20221;-79
2021/12/03 09:36:41;;;;;;;7.55;4.15;;;4.30;1.00;;;;;;5021590;28;20242;-79
2021/12/03 09:39:14;;;;;;;5.65;3.47;;;4.40;1.00;;;;;;5024326;28;20222;-78
2021/12/03 09:41:40;;;;;;;12.13;4.85;;;4.50;1.00;;;;;;5020966;28;21123;-76
2021/12/03 09:44:07;;;;;;;11.80;4.25;;;4.70;1.00;;;;;;5020459;28;20230;-78
2021/12/03 09:46:34;;;;;;;7.07;3.42;;;5.00;1.00;;;;;;5024492;28;20233;-77
2021/12/03 09:49:23;;;;;;;5.60;3.60;;;5.40;1.00;;;;;;5008883;28;20230;-80
2021/12/03 09:52:00;;;;;;;8.55;4.25;;;5.70;1.00;;;;;;5021933;28;20226;-78
2021/12/03 09:54:33;;;;;;;5.43;3.92;;;5.90;1.00;;;;;;5017875;28;20237;-79
2021/12/03 09:57:04;;;;;;;8.40;4.28;;;5.80;1.00;;;;;;5022972;28;20230;-78
2021/12/03 10:13:46;;;;;;;4.32;3.33;;;5.70;1.00;;;;;;4921663;28;20241;-78
2021/12/03 10:18:58;;;;;;;9.57;4.40;;;6.00;1.00;;;;;;5012227;28;20376;-77
2021/12/03 10:21:49;;;;;;;5.55;3.20;;;6.30;1.00;;;;;;5019292;28;20222;-77
2021/12/03 10:24:37;;;;;;;5.68;3.78;;;6.50;1.00;;;;;;4998549;28;20329;-79
2021/12/03 10:36:39;;;;;;;4.00;3.17;;;6.80;1.00;;;;;;5013955;28;20409;-78
2021/12/03 10:39:20;;;;;;;4.20;3.00;;;6.80;1.00;;;;;;5019034;28;20235;-77
2021/12/03 10:41:54;;;;;;;4.75;2.67;;;7.30;1.00;;;;;;4996879;28;20228;-78
2021/12/03 10:44:33;;;;;;;4.13;3.65;;;7.50;1.00;;;;;;5004128;28;20305;-77
2021/12/03 10:47:13;;;;;;;6.97;3.70;;;7.50;1.00;;;;;;4995407;28;20489;-76
2021/12/03 10:49:50;;;;;;;6.20;3.67;;;8.00;1.00;;;;;;5009834;28;20226;-76
2021/12/03 10:52:28;;;;;;;6.95;3.60;;;8.70;1.00;;;;;;4989475;28;20320;-75
2021/12/03 10:55:26;;;;;;;5.53;3.70;;;8.50;1.00;;;;;;5013818;28;20226;-77
2021/12/03 10:58:24;;;;;;;4.88;3.38;;;8.40;1.00;;;;;;5009442;28;20240;-75
2021/12/03 11:01:23;;;;;;;8.02;4.22;;;8.40;1.00;;;;;;5028615;28;20233;-77
2021/12/03 11:06:56;;;;;;;4.85;3.42;;;9.10;1.00;;;;;;5008113;28;21635;-78
2021/12/03 11:12:47;;;;;;;7.00;4.07;;;9.00;1.00;;;;;;5009558;28;20618;-76
2021/12/03 11:38:14;;;;;;;5.95;4.10;;;10.10;1.00;;;;;;5036464;28;20229;-79
2021/12/03 11:41:45;;;;;;;6.00;3.92;;;10.40;1.00;;;;;;5031465;28;20252;-81
2021/12/03 12:16:56;;;;;;;5.63;3.20;;;7.70;1.00;;;;;;5165116;27;20275;-80
2021/12/03 12:25:19;;;;;;;7.18;4.20;;;7.20;1.00;;;;;;5158217;27;20289;-81
2021/12/03 12:40:03;;;;;;;4.15;3.15;;;6.00;1.00;;;;;;5164847;27;20217;-78
2021/12/03 13:08:27;;;;;;;8.35;4.35;;;4.60;1.00;;;;;;5175323;27;20286;-82
2021/12/03 13:11:21;;;;;;;8.25;5.15;;;4.50;1.00;;;;;;5176499;27;20230;-80
2021/12/03 13:17:29;;;;;;;6.63;4.50;;;4.10;1.00;;;;;;5172628;27;20265;-79
2021/12/03 13:20:26;;;;;;;7.53;5.10;;;4.10;1.00;;;;;;5159230;27;20308;-78
2021/12/03 13:57:29;;;;;;;8.30;6.32;;;3.60;1.00;;;;;;5125833;27;20222;-77
2021/12/03 14:00:05;;;;;;;10.15;6.07;;;3.60;1.00;;;;;;5124691;27;20230;-77
2021/12/03 14:39:45;;;;;;;9.48;6.45;;;3.10;1.00;;;;;;5152284;27;20240;-78
2021/12/03 14:42:29;;;;;;;13.07;8.50;;;3.10;1.00;;;;;;5148278;27;20242;-77
2021/12/03 14:45:02;;;;;;;10.18;6.82;;;3.00;1.00;;;;;;5140762;27;20249;-78
2021/12/03 14:47:52;;;;;;;11.65;7.28;;;3.00;1.00;;;;;;5153963;27;21537;-77
2021/12/03 14:53:34;;;;;;;10.52;7.30;;;3.00;1.00;;;;;;5063142;28;20220;-77
2021/12/03 14:56:06;;;;;;;10.55;8.00;;;3.00;1.00;;;;;;5060489;28;21061;-77
2021/12/03 14:58:45;;;;;;;10.40;7.38;;;3.00;1.00;;;;;;5105311;27;20215;-77
2021/12/03 15:01:19;;;;;;;7.85;6.40;;;2.90;1.00;;;;;;5139605;27;20218;-78
2021/12/03 15:04:03;;;;;;;10.90;8.40;;;2.90;1.00;;;;;;5138909;27;20260;-80
2021/12/03 15:06:34;;;;;;;9.93;7.45;;;3.00;1.00;;;;;;5137778;27;20230;-78
2021/12/03 15:09:07;;;;;;;8.32;6.75;;;3.10;1.00;;;;;;5144809;27;20664;-78
2021/12/03 15:20:25;;;;;;;9.88;6.85;;;3.10;1.00;;;;;;5105059;27;20236;-77
2021/12/03 15:23:08;;;;;;;12.30;8.27;;;3.00;1.00;;;;;;5139185;27;21147;-78
2021/12/03 15:25:47;;;;;;;12.57;9.40;;;3.00;1.00;;;;;;5137650;27;20234;-76
2021/12/03 15:28:44;;;;;;;11.50;8.40;;;3.00;1.00;;;;;;5137786;27;20222;-78
2021/12/03 15:31:34;;;;;;;10.00;7.93;;;3.00;1.00;;;;;;5130696;27;20226;-78
2021/12/03 15:34:07;;;;;;;10.57;8.23;;;3.00;1.00;;;;;;5140096;27;20238;-79
2021/12/03 15:36:49;;;;;;;11.25;8.30;;;2.90;1.00;;;;;;5142258;27;20262;-78
2021/12/03 15:56:08;;;;;;;14.10;8.95;;;2.90;1.00;;;;;;5125706;27;20239;-79
2021/12/03 16:04:11;;;;;;;12.52;8.50;;;3.00;1.00;;;;;;5125841;27;20298;-76
2021/12/03 16:06:48;;;;;;;11.43;9.10;;;2.90;1.00;;;;;;5132798;27;20294;-80
2021/12/03 16:09:39;;;;;;;10.45;8.25;;;3.00;1.00;;;;;;5137922;27;20680;-81
2021/12/03 16:12:18;;;;;;;12.43;8.07;;;3.00;1.00;;;;;;5136856;27;22711;-80
2021/12/03 16:14:59;;;;;;;12.27;7.53;;;2.90;1.00;;;;;;5127077;27;20222;-78
2021/12/03 16:17:53;;;;;;;11.35;8.07;;;2.90;1.00;;;;;;5129639;27;20272;-87
2021/12/03 16:20:38;;;;;;;10.20;7.10;;;2.90;1.00;;;;;;5119426;27;20333;-80
2021/12/03 16:51:07;;;;;;;9.60;7.00;;;2.60;1.00;;;;;;5132796;27;20225;-83
2021/12/03 16:53:36;;;;;;;8.25;6.72;;;2.60;1.00;;;;;;5136977;27;20294;-82
2021/12/03 16:56:08;;;;;;;7.00;6.30;;;2.60;1.00;;;;;;5139779;27;20330;-82
2021/12/03 16:58:40;;;;;;;9.05;6.78;;;2.60;1.00;;;;;;5141566;27;20272;-83
2021/12/03 17:01:14;;;;;;;8.27;6.20;;;2.60;1.00;;;;;;5139105;27;20248;-83
2021/12/03 17:03:49;;;;;;;9.48;7.22;;;2.60;1.00;;;;;;5133802;27;20231;-83
2021/12/03 17:09:16;;;;;;;8.95;7.00;;;2.70;1.00;;;;;;5135836;27;21089;-80
2021/12/03 17:14:54;;;;;;;10.40;6.85;;;2.70;1.00;;;;;;5069211;27;20298;-82
2021/12/03 17:49:01;;;;;;;9.23;5.80;;;2.70;1.00;;;;;;5127794;27;20211;-80
2021/12/03 17:51:45;;;;;;;10.07;6.15;;;2.70;1.00;;;;;;5127764;27;20292;-78
2021/12/03 17:57:13;;;;;;;11.73;6.60;;;2.70;1.00;;;;;;5121017;27;20227;-81
2021/12/03 17:59:43;;;;;;;6.55;5.50;;;2.70;1.00;;;;;;5105199;27;20542;-80
2021/12/03 18:02:25;;;;;;;14.15;8.07;;;2.70;1.00;;;;;;5091704;27;20223;-82
2021/12/03 18:05:15;;;;;;;11.85;7.00;;;2.70;1.00;;;;;;5093318;27;20231;-82
2021/12/03 18:07:52;;;;;;;9.63;6.50;;;2.70;1.00;;;;;;5098715;27;20223;-80
2021/12/03 18:10:36;;;;;;;10.57;7.40;;;2.70;1.00;;;;;;5094760;27;20279;-79
2021/12/03 18:16:15;;;;;;;11.55;7.00;;;2.70;1.00;;;;;;5093224;27;20305;-78
2021/12/03 18:19:22;;;;;;;8.63;6.10;;;2.70;1.00;;;;;;5090680;27;20353;-78
2021/12/03 18:47:01;;;;;;;10.02;7.30;;;2.60;1.00;;;;;;5077296;28;20239;-78
2021/12/03 18:50:03;;;;;;;9.15;6.65;;;2.50;1.00;;;;;;5076604;28;20354;-79
2021/12/03 18:52:50;;;;;;;7.70;5.93;;;2.50;1.00;;;;;;5074534;28;20216;-80
2021/12/03 18:55:29;;;;;;;8.77;6.10;;;2.50;1.00;;;;;;5088780;28;20220;-77
2021/12/03 18:57:59;;;;;;;8.35;6.50;;;2.50;1.00;;;;;;5096598;28;20224;-79
2021/12/03 19:00:30;;;;;;;11.23;7.68;;;2.50;1.00;;;;;;5100369;28;20236;-80
2021/12/03 19:02:59;;;;;;;9.32;6.70;;;2.40;1.00;;;;;;5101165;28;20286;-78
2021/12/03 19:05:33;;;;;;;10.60;6.82;;;2.40;1.00;;;;;;5102367;27;20236;-77
2021/12/03 19:08:06;;;;;;;10.10;7.20;;;2.40;1.00;;;;;;5098328;28;21107;-76
2021/12/03 19:10:41;;;;;;;9.02;7.13;;;2.30;1.00;;;;;;5098892;28;20237;-77
2021/12/03 19:13:13;;;;;;;10.88;7.30;;;2.30;1.00;;;;;;5100767;27;20691;-78
2021/12/03 19:15:42;;;;;;;7.65;6.85;;;2.20;1.00;;;;;;5086516;28;20224;-80
2021/12/03 19:18:12;;;;;;;11.23;7.38;;;2.20;1.00;;;;;;5080771;28;20225;-80
2021/12/03 19:20:42;;;;;;;9.70;7.28;;;2.20;1.00;;;;;;5077183;28;20225;-81
2021/12/03 19:23:11;;;;;;;9.98;7.03;;;2.20;1.00;;;;;;5079418;28;21031;-79
2021/12/03 19:25:39;;;;;;;8.45;7.00;;;2.30;1.00;;;;;;5083895;28;20224;-77
2021/12/03 19:28:07;;;;;;;10.38;7.00;;;2.30;1.00;;;;;;5085486;28;20359;-77
2021/12/03 19:30:34;;;;;;;11.02;7.30;;;2.30;1.00;;;;;;5091232;28;20363;-78
2021/12/03 19:33:01;;;;;;;7.40;6.47;;;2.40;1.00;;;;;;5076658;28;20232;-78
2021/12/03 19:35:27;;;;;;;9.27;7.07;;;2.40;1.00;;;;;;5071214;28;20833;-81
2021/12/03 19:37:57;;;;;;;11.10;6.75;;;2.40;1.00;;;;;;5070666;28;21163;-80
2021/12/03 19:40:25;;;;;;;9.45;7.47;;;2.50;1.00;;;;;;5076374;28;20310;-77
2021/12/03 19:42:58;;;;;;;8.30;7.25;;;2.50;1.00;;;;;;5077700;28;20276;-80